createdAt,value
2022-12-06T00:01:28.788Z,75.30
2022-12-06T00:03:57.499Z,74.96
2022-12-06T00:06:27.531Z,74.75
2022-12-06T00:08:54.950Z,75.02
2022-12-06T00:11:23.060Z,75.12
2022-12-06T00:13:53.228Z,75.01
2022-12-06T00:16:20.740Z,74.70
2022-12-06T00:18:49.459Z,74.88
2022-12-06T00:21:17.867Z,74.53
2022-12-06T00:23:46.125Z,74.52
2022-12-06T00:26:13.559Z,74.39
2022-12-06T00:28:41.060Z,74.66
2022-12-06T00:31:09.338Z,74.43
2022-12-06T00:33:37.039Z,74.17
2022-12-06T00:36:07.678Z,74.42
2022-12-06T00:38:36.413Z,74.40
2022-12-06T00:41:05.043Z,74.31
2022-12-06T00:43:32.617Z,74.21
2022-12-06T00:46:00.113Z,74.32
2022-12-06T00:48:27.734Z,74.10
2022-12-06T00:50:55.218Z,74.07
2022-12-06T00:53:23.963Z,74.74
2022-12-06T00:55:51.368Z,75.20
2022-12-06T00:58:19.048Z,75.27
2022-12-06T01:00:46.480Z,75.60
2022-12-06T01:03:13.929Z,75.59
2022-12-06T01:05:41.786Z,75.49
2022-12-06T01:08:09.273Z,75.54
2022-12-06T01:10:38.060Z,75.68
2022-12-06T01:13:05.701Z,75.71
2022-12-06T01:15:33.107Z,75.38
2022-12-06T01:18:00.553Z,75.57
2022-12-06T01:20:27.972Z,75.54
2022-12-06T01:22:55.397Z,75.51
2022-12-06T01:25:25.931Z,75.30
2022-12-06T01:27:55.039Z,75.33
2022-12-06T01:30:22.533Z,75.34
2022-12-06T01:32:50.007Z,75.34
2022-12-06T01:35:17.450Z,75.07
2022-12-06T01:37:44.877Z,75.06
2022-12-06T01:40:13.252Z,75.06
2022-12-06T01:42:40.652Z,74.84
2022-12-06T01:45:10.902Z,75.04
2022-12-06T01:47:39.484Z,75.08
2022-12-06T01:50:08.289Z,74.88
2022-12-06T01:52:38.905Z,74.84
2022-12-06T01:55:06.743Z,74.84
2022-12-06T01:57:34.154Z,74.73
2022-12-06T02:00:02.210Z,74.71
2022-12-06T02:02:39.193Z,74.57
2022-12-06T02:05:07.724Z,74.71
2022-12-06T02:07:35.236Z,74.40
2022-12-06T02:10:02.781Z,74.60
2022-12-06T02:12:30.281Z,74.54
2022-12-06T02:14:57.732Z,74.29
2022-12-06T02:17:30.633Z,74.34
2022-12-06T02:20:25.798Z,74.38
2022-12-06T02:23:25.359Z,74.03
2022-12-06T02:26:04.799Z,74.27
2022-12-06T02:28:52.632Z,74.18
2022-12-06T02:31:23.337Z,74.23
2022-12-06T02:33:52.363Z,74.20
2022-12-06T02:36:22.899Z,74.20
2022-12-06T02:38:51.973Z,74.33
2022-12-06T02:41:21.369Z,73.98
2022-12-06T02:43:51.718Z,74.11
2022-12-06T02:46:20.560Z,73.89
2022-12-06T02:48:48.220Z,74.07
2022-12-06T02:51:16.454Z,74.05
2022-12-06T02:53:46.678Z,74.07
2022-12-06T02:56:14.109Z,73.92
2022-12-06T02:58:41.509Z,74.03
2022-12-06T03:01:11.546Z,73.72
2022-12-06T03:03:52.412Z,73.83
2022-12-06T03:06:36.142Z,73.53
2022-12-06T03:09:07.749Z,73.61
2022-12-06T03:11:38.697Z,73.24
2022-12-06T03:14:08.314Z,73.26
2022-12-06T03:16:41.669Z,73.42
2022-12-06T03:19:13.012Z,73.08
2022-12-06T03:21:41.721Z,73.43
2022-12-06T03:24:11.541Z,73.30
2022-12-06T03:26:39.031Z,73.03
2022-12-06T03:29:07.020Z,73.23
2022-12-06T03:31:35.033Z,73.00
2022-12-06T03:34:03.445Z,73.13
2022-12-06T03:36:32.237Z,73.08
2022-12-06T03:39:00.955Z,73.15
2022-12-06T03:41:30.672Z,72.88
2022-12-06T03:43:58.671Z,72.89
2022-12-06T03:46:28.351Z,73.17
2022-12-06T03:48:57.705Z,72.95
2022-12-06T03:51:26.383Z,72.82
2022-12-06T03:53:55.827Z,72.93
2022-12-06T03:56:23.546Z,72.74
2022-12-06T03:58:50.990Z,72.75
2022-12-06T04:01:18.447Z,72.77
2022-12-06T04:03:45.933Z,72.69
2022-12-06T04:06:13.377Z,72.57
2022-12-06T04:08:40.791Z,72.42
2022-12-06T04:11:09.459Z,72.80
2022-12-06T04:13:36.859Z,72.42
2022-12-06T04:16:04.373Z,72.64
2022-12-06T04:18:30.897Z,72.34
2022-12-06T04:21:16.660Z,72.30
2022-12-06T04:23:44.832Z,72.35
2022-12-06T04:26:14.850Z,72.41
2022-12-06T04:29:00.044Z,72.33
2022-12-06T04:31:45.509Z,72.55
2022-12-06T04:34:30.776Z,72.25
2022-12-06T04:37:16.245Z,72.36
2022-12-06T04:39:43.647Z,72.64
2022-12-06T04:42:30.395Z,72.35
2022-12-06T04:44:57.933Z,72.04
2022-12-06T04:47:25.346Z,72.30
2022-12-06T04:49:52.763Z,72.12
2022-12-06T04:52:20.374Z,71.99
2022-12-06T04:54:48.033Z,71.92
2022-12-06T04:57:17.230Z,72.07
2022-12-06T04:59:46.073Z,72.02
2022-12-06T05:02:14.336Z,72.11
2022-12-06T05:04:41.752Z,72.09
2022-12-06T05:07:09.691Z,72.22
2022-12-06T05:09:37.118Z,72.20
2022-12-06T05:12:04.614Z,72.26
2022-12-06T05:14:33.340Z,71.99
2022-12-06T05:17:00.757Z,72.00
2022-12-06T05:19:28.402Z,71.74
2022-12-06T05:21:55.790Z,71.83
2022-12-06T05:24:23.205Z,71.77
2022-12-06T05:26:50.608Z,71.80
2022-12-06T05:29:18.047Z,71.72
2022-12-06T05:31:46.815Z,71.96
2022-12-06T05:34:14.483Z,72.29
2022-12-06T05:36:41.930Z,72.40
2022-12-06T05:39:09.353Z,72.23
2022-12-06T05:41:36.771Z,72.52
2022-12-06T05:44:04.221Z,72.41
2022-12-06T05:46:31.646Z,72.73
2022-12-06T05:49:00.372Z,72.61
2022-12-06T05:51:27.788Z,72.38
2022-12-06T05:53:55.241Z,72.75
2022-12-06T05:56:22.906Z,72.71
2022-12-06T05:58:50.462Z,72.50
2022-12-06T06:01:17.953Z,72.57
2022-12-06T06:03:47.725Z,72.65
2022-12-06T06:06:18.085Z,72.75
2022-12-06T06:08:45.515Z,73.03
2022-12-06T06:11:12.934Z,73.03
2022-12-06T06:13:40.331Z,73.37
2022-12-06T06:16:08.137Z,72.99
2022-12-06T06:18:35.653Z,73.02
2022-12-06T06:21:03.839Z,72.69
2022-12-06T06:23:32.554Z,72.79
2022-12-06T06:26:00.046Z,73.02
2022-12-06T06:28:27.487Z,72.76
2022-12-06T06:30:54.891Z,72.92
2022-12-06T06:33:22.397Z,72.92
2022-12-06T06:35:49.896Z,72.55
2022-12-06T06:38:17.383Z,72.84
2022-12-06T06:40:46.178Z,72.71
2022-12-06T06:43:27.564Z,72.62
2022-12-06T06:45:55.378Z,72.53
2022-12-06T06:48:23.170Z,72.80
2022-12-06T06:50:56.640Z,72.59
2022-12-06T06:53:26.280Z,72.58
2022-12-06T06:55:53.881Z,72.47
2022-12-06T06:58:21.451Z,72.28
2022-12-06T07:00:55.029Z,72.59
2022-12-06T07:03:22.706Z,72.45
2022-12-06T07:05:52.959Z,72.41
2022-12-06T07:08:20.535Z,72.56
2022-12-06T07:10:48.801Z,72.25
2022-12-06T07:13:16.265Z,72.22
2022-12-06T07:15:43.676Z,71.91
2022-12-06T07:18:12.421Z,72.20
2022-12-06T07:20:39.967Z,72.06
2022-12-06T07:23:07.431Z,72.02
2022-12-06T07:25:34.835Z,72.34
2022-12-06T07:28:02.268Z,72.15
2022-12-06T07:30:29.876Z,71.92
2022-12-06T07:32:57.316Z,72.04
2022-12-06T07:35:42.000Z,72.01
2022-12-06T07:38:13.857Z,72.28
2022-12-06T07:41:03.454Z,72.28
2022-12-06T07:43:46.632Z,72.20
2022-12-06T07:46:14.151Z,72.13
2022-12-06T07:48:41.663Z,72.23
2022-12-06T07:51:10.464Z,72.06
2022-12-06T07:53:37.902Z,71.75
2022-12-06T07:56:08.570Z,71.86
2022-12-06T08:00:53.002Z,71.78
2022-12-06T08:03:20.430Z,71.86
2022-12-06T08:05:54.670Z,71.72
2022-12-06T08:08:28.013Z,71.70
2022-12-06T08:10:55.812Z,71.94
2022-12-06T08:13:23.240Z,71.88
2022-12-06T08:15:50.696Z,71.71
2022-12-06T08:18:19.400Z,71.57
2022-12-06T08:20:46.834Z,71.59
2022-12-06T08:23:14.247Z,71.60
2022-12-06T08:25:41.672Z,71.56
2022-12-06T08:28:09.088Z,71.75
2022-12-06T08:30:39.770Z,71.42
2022-12-06T08:33:07.218Z,71.50
2022-12-06T08:35:38.424Z,70.82
2022-12-06T08:38:05.845Z,70.66
2022-12-06T08:40:33.322Z,70.07
2022-12-06T08:43:01.021Z,69.37
2022-12-06T08:45:28.427Z,68.71
2022-12-06T08:47:55.852Z,68.34
2022-12-06T08:50:23.341Z,67.99
2022-12-06T08:52:52.102Z,67.37
2022-12-06T08:55:19.527Z,67.48
2022-12-06T08:57:46.935Z,66.78
2022-12-06T09:00:15.561Z,66.97
2022-12-06T09:02:42.981Z,67.26
2022-12-06T09:05:10.611Z,67.23
2022-12-06T09:07:38.079Z,66.89
2022-12-06T09:10:08.197Z,66.82
2022-12-06T09:12:35.606Z,67.00
2022-12-06T09:15:03.026Z,67.04
2022-12-06T09:17:30.527Z,67.09
2022-12-06T09:20:03.778Z,67.00
2022-12-06T09:22:33.172Z,67.22
2022-12-06T09:25:00.581Z,67.03
2022-12-06T09:27:29.963Z,66.94
2022-12-06T09:29:57.582Z,66.90
2022-12-06T09:32:25.719Z,67.21
2022-12-06T09:34:53.292Z,67.06
2022-12-06T09:37:20.736Z,67.32
2022-12-06T09:39:49.013Z,66.97
2022-12-06T09:42:27.707Z,66.98
2022-12-06T09:45:12.657Z,67.06
2022-12-06T09:47:49.247Z,66.98
2022-12-06T09:50:19.595Z,67.10
2022-12-06T09:52:55.532Z,66.91
2022-12-06T09:55:30.429Z,66.86
2022-12-06T09:58:01.250Z,66.88
2022-12-06T10:00:31.228Z,67.06
2022-12-06T10:03:08.241Z,66.98
2022-12-06T10:05:39.965Z,66.69
2022-12-06T10:08:17.988Z,67.03
2022-12-06T10:10:52.847Z,66.99
2022-12-06T10:13:23.395Z,66.78
2022-12-06T10:15:57.270Z,66.64
2022-12-06T10:18:35.659Z,66.89
2022-12-06T10:21:09.352Z,66.82
2022-12-06T10:23:43.861Z,66.78
2022-12-06T10:26:14.747Z,66.83
2022-12-06T10:28:44.676Z,66.78
2022-12-06T10:31:22.760Z,67.07
2022-12-06T10:33:56.046Z,67.31
2022-12-06T10:36:30.897Z,67.18
2022-12-06T10:39:00.941Z,67.55
2022-12-06T10:41:29.651Z,67.67
2022-12-06T10:43:59.220Z,67.66
2022-12-06T10:46:49.050Z,68.10
2022-12-06T10:49:20.702Z,67.78
2022-12-06T10:51:50.476Z,67.95
2022-12-06T10:54:23.064Z,68.10
2022-12-06T10:56:50.554Z,68.18
2022-12-06T10:59:28.579Z,68.40
2022-12-06T11:01:58.639Z,68.14
2022-12-06T11:04:26.709Z,68.24
2022-12-06T11:06:55.294Z,68.20
2022-12-06T11:09:26.752Z,68.17
2022-12-06T11:11:54.139Z,68.02
2022-12-06T11:14:24.500Z,68.45
2022-12-06T11:16:55.017Z,68.22
2022-12-06T11:19:27.944Z,68.58
2022-12-06T11:21:57.447Z,68.46
2022-12-06T11:24:27.124Z,68.30
2022-12-06T11:26:57.724Z,68.65
2022-12-06T11:29:25.139Z,68.35
2022-12-06T11:31:53.137Z,68.47
2022-12-06T11:34:22.074Z,68.08
2022-12-06T11:36:55.388Z,68.14
2022-12-06T11:39:27.182Z,68.25
2022-12-06T11:41:55.888Z,68.34
2022-12-06T11:44:25.466Z,68.21
2022-12-06T11:46:55.472Z,68.58
2022-12-06T11:49:26.690Z,68.37
2022-12-06T11:51:55.375Z,68.31
2022-12-06T11:54:24.363Z,68.17
2022-12-06T11:56:51.884Z,68.34
2022-12-06T11:59:25.519Z,68.19
2022-12-06T12:01:54.016Z,68.23
2022-12-06T12:04:35.389Z,68.22
2022-12-06T12:07:06.387Z,68.21
2022-12-06T12:09:34.637Z,68.16
2022-12-06T12:12:05.124Z,68.08
2022-12-06T12:14:37.360Z,68.18
2022-12-06T12:17:04.943Z,68.14
2022-12-06T12:19:36.158Z,68.21
2022-12-06T12:22:17.164Z,68.22
2022-12-06T12:27:42.888Z,68.16
2022-12-06T12:30:35.298Z,68.34
2022-12-06T12:33:16.700Z,68.83
2022-12-06T12:35:44.537Z,68.60
2022-12-06T12:38:19.264Z,68.46
2022-12-06T12:40:48.319Z,68.38
2022-12-06T12:43:17.678Z,68.25
2022-12-06T12:46:04.168Z,68.13
2022-12-06T12:48:31.694Z,68.41
2022-12-06T12:50:59.948Z,68.30
2022-12-06T12:53:33.131Z,68.33
2022-12-06T12:56:07.191Z,68.77
2022-12-06T12:58:36.356Z,68.71
2022-12-06T13:01:06.511Z,68.97
2022-12-06T13:03:50.892Z,68.33
2022-12-06T13:06:26.662Z,68.15
2022-12-06T13:08:55.396Z,67.95
2022-12-06T13:11:22.848Z,67.79
2022-12-06T13:13:50.820Z,67.96
2022-12-06T13:16:31.123Z,67.90
2022-12-06T13:18:59.173Z,68.01
2022-12-06T13:21:30.545Z,68.07
2022-12-06T13:24:02.632Z,67.85
2022-12-06T13:26:31.013Z,67.75
2022-12-06T13:29:00.318Z,67.85
2022-12-06T13:31:29.963Z,67.54
2022-12-06T13:33:58.390Z,68.01
2022-12-06T13:36:25.827Z,67.79
2022-12-06T13:38:53.352Z,67.75
2022-12-06T13:42:12.200Z,67.76
2022-12-06T13:44:41.602Z,67.72
2022-12-06T13:47:39.182Z,67.93
2022-12-06T13:50:48.448Z,67.97
2022-12-06T13:53:15.895Z,67.91
2022-12-06T13:55:59.075Z,67.97
2022-12-06T13:58:50.011Z,67.73
2022-12-06T14:01:40.423Z,67.89
2022-12-06T14:06:57.640Z,68.00
2022-12-06T14:09:25.668Z,68.01
2022-12-06T14:11:54.476Z,68.04
2022-12-06T14:14:24.019Z,67.92
2022-12-06T14:16:53.170Z,67.95
2022-12-06T14:19:22.523Z,67.97
2022-12-06T14:21:54.923Z,67.75
2022-12-06T14:24:26.921Z,67.85
2022-12-06T14:26:54.306Z,67.65
2022-12-06T14:29:24.076Z,67.82
2022-12-06T14:31:51.786Z,67.73
2022-12-06T14:34:25.160Z,67.77
2022-12-06T14:36:52.559Z,67.95
2022-12-06T14:39:21.143Z,69.30
2022-12-06T14:42:11.057Z,69.56
2022-12-06T14:44:40.112Z,69.54
2022-12-06T14:49:48.465Z,69.17
2022-12-06T14:52:28.741Z,69.33
2022-12-06T14:55:13.773Z,69.31
2022-12-06T14:57:45.313Z,68.99
2022-12-06T15:00:20.863Z,68.45
2022-12-06T15:03:00.777Z,68.93
2022-12-06T15:05:34.520Z,68.75
2022-12-06T15:08:32.965Z,68.76
2022-12-06T15:11:01.569Z,68.45
2022-12-06T15:13:29.091Z,68.29
2022-12-06T15:16:12.731Z,69.06
2022-12-06T15:18:41.105Z,68.58
2022-12-06T15:21:13.080Z,68.54
2022-12-06T15:23:40.965Z,68.33
2022-12-06T15:26:09.181Z,69.57
2022-12-06T15:28:36.632Z,69.08
2022-12-06T15:31:04.220Z,68.54
2022-12-06T15:33:31.652Z,68.91
2022-12-06T15:35:59.183Z,68.83
2022-12-06T15:38:27.888Z,69.05
2022-12-06T15:40:55.580Z,68.95
2022-12-06T15:43:28.816Z,68.91
2022-12-06T15:45:56.500Z,68.88
2022-12-06T15:48:23.965Z,68.72
2022-12-06T15:50:51.380Z,68.44
2022-12-06T15:53:21.078Z,68.52
2022-12-06T15:55:49.805Z,68.53
2022-12-06T15:58:17.417Z,68.48
2022-12-06T16:00:45.643Z,68.50
2022-12-06T16:03:13.211Z,68.73
2022-12-06T16:05:41.505Z,68.46
2022-12-06T16:08:09.043Z,68.66
2022-12-06T16:11:09.833Z,68.39
2022-12-06T16:13:25.245Z,68.29
2022-12-06T16:15:52.866Z,68.68
2022-12-06T16:18:20.545Z,68.64
2022-12-06T16:20:47.942Z,68.72
2022-12-06T16:23:56.578Z,70.24
2022-12-06T16:26:21.620Z,69.47
2022-12-06T16:28:50.301Z,69.60
2022-12-06T16:31:17.822Z,69.82
2022-12-06T16:33:45.302Z,69.92
2022-12-06T16:36:13.836Z,69.99
2022-12-06T16:38:41.284Z,69.32
2022-12-06T16:41:10.381Z,69.50
2022-12-06T16:43:37.771Z,69.31
2022-12-06T16:46:18.759Z,69.46
2022-12-06T16:48:48.249Z,69.41
2022-12-06T16:51:18.637Z,69.47
2022-12-06T16:53:46.035Z,69.46
2022-12-06T16:56:13.623Z,69.61
2022-12-06T16:58:41.040Z,69.62
2022-12-06T17:01:20.417Z,69.25
2022-12-06T17:03:50.721Z,69.18
2022-12-06T17:06:18.215Z,69.25
2022-12-06T17:08:45.654Z,69.33
2022-12-06T17:11:34.409Z,69.12
2022-12-06T17:14:01.917Z,69.23
2022-12-06T17:16:30.690Z,69.03
2022-12-06T17:18:58.149Z,69.29
2022-12-06T17:21:25.606Z,69.33
2022-12-06T17:23:53.004Z,69.07
2022-12-06T17:26:20.423Z,68.99
2022-12-06T17:28:47.825Z,68.90
2022-12-06T17:31:15.256Z,68.70
2022-12-06T17:33:43.972Z,68.94
2022-12-06T17:36:12.296Z,68.94
2022-12-06T17:38:39.697Z,68.86
2022-12-06T17:41:28.205Z,68.95
2022-12-06T17:43:55.603Z,69.06
2022-12-06T17:46:23.161Z,69.02
2022-12-06T17:48:51.982Z,68.72
2022-12-06T17:51:19.387Z,68.82
2022-12-06T17:53:46.814Z,68.97
2022-12-06T17:56:24.865Z,69.04
2022-12-06T17:58:52.657Z,68.89
2022-12-06T18:01:20.114Z,68.79
2022-12-06T18:03:47.552Z,68.80
2022-12-06T18:06:16.246Z,68.90
2022-12-06T18:08:43.665Z,69.11
2022-12-06T18:11:11.115Z,69.36
2022-12-06T18:13:38.589Z,69.38
2022-12-06T18:16:13.945Z,69.27
2022-12-06T18:18:42.066Z,69.22
2022-12-06T18:21:09.514Z,69.36
2022-12-06T18:23:44.562Z,69.62
2022-12-06T18:26:21.159Z,70.13
2022-12-06T18:28:52.219Z,70.03
2022-12-06T18:31:19.647Z,69.75
2022-12-06T18:33:47.168Z,69.87
2022-12-06T18:36:14.992Z,69.70
2022-12-06T18:38:43.805Z,69.57
2022-12-06T18:41:12.973Z,69.49
2022-12-06T18:43:40.970Z,69.83
2022-12-06T18:46:09.327Z,69.76
2022-12-06T18:48:37.935Z,69.72
2022-12-06T18:51:05.705Z,69.85
2022-12-06T18:53:33.390Z,69.46
2022-12-06T18:56:02.119Z,69.52
2022-12-06T18:58:29.527Z,69.60
2022-12-06T19:00:57.006Z,69.60
2022-12-06T19:03:24.484Z,69.63
2022-12-06T19:06:02.828Z,69.64
2022-12-06T19:08:30.731Z,69.64
2022-12-06T19:11:02.662Z,69.45
2022-12-06T19:13:30.081Z,69.25
2022-12-06T19:16:01.861Z,69.50
2022-12-06T19:18:29.364Z,69.66
2022-12-06T19:21:00.204Z,69.30
2022-12-06T19:23:28.591Z,69.52
2022-12-06T19:26:01.688Z,70.56
2022-12-06T19:28:29.143Z,70.21
2022-12-06T19:30:57.718Z,69.84
2022-12-06T19:33:25.202Z,69.90
2022-12-06T19:35:59.226Z,70.18
2022-12-06T19:38:26.864Z,70.19
2022-12-06T19:40:55.239Z,70.05
2022-12-06T19:43:45.312Z,69.94
2022-12-06T19:46:14.161Z,69.67
2022-12-06T19:48:41.753Z,69.94
2022-12-06T19:51:09.361Z,69.92
2022-12-06T19:53:37.433Z,69.53
2022-12-06T19:56:05.699Z,69.65
2022-12-06T19:58:34.464Z,69.57
2022-12-06T20:01:07.187Z,69.83
2022-12-06T20:03:34.670Z,69.78
2022-12-06T20:06:02.938Z,69.50
2022-12-06T20:08:30.388Z,69.87
2022-12-06T20:11:02.287Z,69.68
2022-12-06T20:13:30.236Z,69.47
2022-12-06T20:16:02.294Z,69.80
2022-12-06T20:18:29.908Z,69.70
2022-12-06T20:20:57.761Z,69.82
2022-12-06T20:23:25.435Z,69.54
2022-12-06T20:25:52.893Z,69.52
2022-12-06T20:28:21.202Z,69.76
2022-12-06T20:30:48.726Z,69.48
2022-12-06T20:33:17.554Z,69.52
2022-12-06T20:35:45.009Z,69.57
2022-12-06T20:38:12.517Z,69.59
2022-12-06T20:40:40.182Z,69.52
2022-12-06T20:43:07.638Z,70.23
2022-12-06T20:45:35.120Z,69.95
2022-12-06T20:48:02.926Z,70.27
2022-12-06T20:50:31.806Z,70.11
2022-12-06T20:52:59.270Z,70.21
2022-12-06T20:55:26.746Z,70.43
2022-12-06T20:57:54.207Z,70.59
2022-12-06T21:00:22.322Z,70.25
2022-12-06T21:02:49.944Z,70.24
2022-12-06T21:05:19.004Z,70.58
2022-12-06T21:07:48.013Z,70.30
2022-12-06T21:10:15.771Z,70.37
2022-12-06T21:12:43.244Z,70.43
2022-12-06T21:15:11.528Z,70.41
2022-12-06T21:17:39.213Z,70.35
2022-12-06T21:20:08.194Z,70.52
2022-12-06T21:22:35.722Z,70.64
2022-12-06T21:25:07.616Z,70.68
2022-12-06T21:27:35.147Z,70.29
2022-12-06T21:30:02.968Z,70.41
2022-12-06T21:32:30.614Z,70.58
2022-12-06T21:34:58.067Z,70.62
2022-12-06T21:37:25.536Z,70.59
2022-12-06T21:39:52.951Z,70.41
2022-12-06T21:42:23.624Z,70.60
2022-12-06T21:44:51.023Z,70.40
2022-12-06T21:47:18.466Z,70.46
2022-12-06T21:49:45.889Z,70.65
2022-12-06T21:52:13.761Z,70.59
2022-12-06T21:54:41.271Z,70.50
2022-12-06T21:57:08.739Z,70.59
2022-12-06T21:59:37.637Z,70.55
2022-12-06T22:02:05.166Z,70.57
2022-12-06T22:04:32.647Z,70.60
2022-12-06T22:07:00.080Z,70.67
2022-12-06T22:09:30.105Z,70.48
2022-12-06T22:13:35.742Z,70.87
2022-12-06T22:16:03.267Z,70.68
2022-12-06T22:18:30.735Z,70.84
2022-12-06T22:20:59.257Z,70.96
2022-12-06T22:23:26.664Z,71.21
2022-12-06T22:25:54.088Z,71.43
2022-12-06T22:28:21.593Z,70.52
